createdAt,value
2022-08-04T00:00:51.784Z,47.52
2022-08-04T00:01:51.882Z,50.12
2022-08-04T00:02:51.767Z,47.52
2022-08-04T00:03:51.781Z,51.37
2022-08-04T00:04:51.760Z,54.95
2022-08-04T00:05:51.754Z,56.39
2022-08-04T00:06:51.758Z,51.20
2022-08-04T00:07:51.726Z,50.27
2022-08-04T00:08:53.056Z,52.09
2022-08-04T00:09:51.706Z,50.24
2022-08-04T00:10:51.714Z,52.73
2022-08-04T00:11:51.699Z,50.38
2022-08-04T00:12:51.690Z,43.40
2022-08-04T00:13:59.798Z,54.22
2022-08-04T00:14:52.678Z,46.25
2022-08-04T00:15:51.669Z,54.38
2022-08-04T00:16:51.662Z,57.74
2022-08-04T00:17:51.657Z,46.54
2022-08-04T00:18:51.651Z,54.31
2022-08-04T00:19:51.630Z,47.86
2022-08-04T00:20:51.625Z,48.10
2022-08-04T00:21:51.622Z,45.09
2022-08-04T00:22:51.623Z,43.16
2022-08-04T00:24:11.831Z,49.40
2022-08-04T00:24:52.598Z,52.81
2022-08-04T00:25:51.579Z,51.63
2022-08-04T00:26:51.577Z,47.32
2022-08-04T00:27:51.566Z,47.52
2022-08-04T00:28:51.556Z,60.31
2022-08-04T00:29:53.117Z,57.44
2022-08-04T00:30:51.554Z,48.20
2022-08-04T00:33:51.652Z,47.73
2022-08-04T00:34:51.654Z,55.61
2022-08-04T00:35:51.637Z,55.03
2022-08-04T00:36:51.630Z,50.07
2022-08-04T00:37:51.619Z,44.15
2022-08-04T00:38:52.803Z,45.33
2022-08-04T00:39:52.716Z,51.70
2022-08-04T00:40:52.690Z,49.12
2022-08-04T00:41:56.643Z,46.41
2022-08-04T00:42:58.597Z,56.20
2022-08-04T00:43:53.672Z,45.86
2022-08-04T00:44:52.660Z,52.59
2022-08-04T00:46:15.436Z,49.35
2022-08-04T00:46:53.652Z,54.21
2022-08-04T00:47:52.656Z,54.40
2022-08-04T00:48:52.647Z,57.75
2022-08-04T00:49:52.651Z,52.66
2022-08-04T00:50:52.632Z,43.94
2022-08-04T00:52:31.426Z,45.14
2022-08-04T00:52:53.611Z,50.06
2022-08-04T00:53:52.609Z,55.72
2022-08-04T00:54:52.594Z,49.46
2022-08-04T00:55:52.580Z,48.56
2022-08-04T00:56:52.577Z,51.42
2022-08-04T00:57:52.588Z,53.09
2022-08-04T00:58:52.555Z,51.60
2022-08-04T00:59:52.546Z,43.18
2022-08-04T01:00:52.554Z,50.19
2022-08-04T01:01:52.612Z,59.29
2022-08-04T01:02:52.544Z,52.44
2022-08-04T01:03:52.520Z,59.24
2022-08-04T01:04:52.521Z,55.82
2022-08-04T01:05:52.501Z,54.54
2022-08-04T01:06:56.236Z,47.34
2022-08-04T01:07:52.502Z,51.27
2022-08-04T01:08:52.475Z,44.69
2022-08-04T01:09:52.478Z,43.16
2022-08-04T01:10:52.482Z,52.63
2022-08-04T01:11:56.148Z,50.04
2022-08-04T01:12:53.462Z,55.51
2022-08-04T01:13:52.442Z,44.93
2022-08-04T01:14:52.427Z,51.89
2022-08-04T01:15:59.496Z,53.94
2022-08-04T01:16:53.419Z,54.80
2022-08-04T01:17:52.423Z,51.93
2022-08-04T01:18:52.400Z,49.95
2022-08-04T01:19:52.406Z,49.92
2022-08-04T01:20:52.387Z,47.85
2022-08-04T01:21:52.370Z,45.72
2022-08-04T01:22:52.372Z,54.92
2022-08-04T01:23:52.363Z,50.24
2022-08-04T01:24:52.363Z,47.02
2022-08-04T01:25:52.368Z,47.31
2022-08-04T01:26:57.374Z,40.59
2022-08-04T01:27:53.329Z,44.79
2022-08-04T01:28:52.339Z,50.20
2022-08-04T01:29:55.579Z,57.02
2022-08-04T01:30:52.300Z,57.82
2022-08-04T01:31:52.319Z,55.06
2022-08-04T01:32:52.303Z,48.15
2022-08-04T01:33:58.456Z,46.16
2022-08-04T01:34:53.278Z,55.88
2022-08-04T01:35:52.260Z,49.35
2022-08-04T01:36:52.270Z,58.93
2022-08-04T01:37:52.242Z,48.42
2022-08-04T01:38:52.279Z,48.75
2022-08-04T01:39:52.236Z,49.01
2022-08-04T01:40:52.229Z,45.44
2022-08-04T01:41:58.306Z,47.72
2022-08-04T01:42:53.215Z,44.54
2022-08-04T01:43:52.206Z,42.89
2022-08-04T01:44:52.209Z,45.53
2022-08-04T01:45:52.196Z,45.19
2022-08-04T01:46:52.186Z,52.81
2022-08-04T01:47:52.168Z,52.74
2022-08-04T01:48:52.166Z,48.69
2022-08-04T01:49:52.168Z,55.87
2022-08-04T01:50:52.979Z,48.50
2022-08-04T01:51:52.132Z,51.49
2022-08-04T01:52:52.145Z,50.48
2022-08-04T01:53:52.129Z,48.06
2022-08-04T01:54:52.115Z,47.08
2022-08-04T01:55:55.419Z,52.26
2022-08-04T01:56:52.100Z,50.59
2022-08-04T01:57:52.079Z,51.64
2022-08-04T01:58:52.096Z,55.25
2022-08-04T01:59:52.082Z,50.29
2022-08-04T02:00:56.238Z,52.71
2022-08-04T02:01:53.174Z,53.83
2022-08-04T02:02:52.122Z,50.21
2022-08-04T02:04:18.606Z,46.81
2022-08-04T02:04:53.035Z,59.25
2022-08-04T02:06:02.375Z,53.61
2022-08-04T02:06:53.023Z,52.25
2022-08-04T02:07:52.019Z,49.54
2022-08-04T02:08:52.001Z,53.26
2022-08-04T02:09:54.990Z,53.03
2022-08-04T02:10:51.993Z,49.13
2022-08-04T02:11:51.991Z,48.77
2022-08-04T02:12:51.971Z,48.98
2022-08-04T02:13:51.972Z,49.31
2022-08-04T02:14:51.968Z,49.43
2022-08-04T02:15:51.963Z,53.14
2022-08-04T02:16:52.663Z,51.39
2022-08-04T02:17:51.943Z,56.36
2022-08-04T02:18:51.940Z,57.09
2022-08-04T02:19:51.911Z,56.51
2022-08-04T02:20:51.925Z,47.35
2022-08-04T02:21:51.917Z,58.16
2022-08-04T02:22:51.905Z,52.45
2022-08-04T02:23:51.886Z,50.72
2022-08-04T02:24:51.869Z,57.85
2022-08-04T02:25:51.871Z,54.33
2022-08-04T02:26:51.872Z,47.12
2022-08-04T02:27:59.838Z,50.02
2022-08-04T02:28:52.852Z,47.76
2022-08-04T02:29:51.837Z,52.08
2022-08-04T02:30:51.826Z,53.09
2022-08-04T02:31:51.824Z,59.31
2022-08-04T02:32:51.857Z,48.72
2022-08-04T02:33:51.806Z,57.01
2022-08-04T02:34:51.809Z,53.19
2022-08-04T02:35:51.800Z,58.80
2022-08-04T02:36:51.786Z,53.75
2022-08-04T02:37:51.788Z,50.53
2022-08-04T02:38:51.835Z,53.81
2022-08-04T02:39:51.821Z,51.73
2022-08-04T02:40:51.755Z,58.44
2022-08-04T02:41:51.760Z,58.94
2022-08-04T02:42:51.737Z,50.19
2022-08-04T02:43:52.851Z,54.80
2022-08-04T02:44:52.729Z,53.50
2022-08-04T02:45:51.719Z,48.81
2022-08-04T02:46:51.751Z,52.36
2022-08-04T02:48:30.621Z,51.73
2022-08-04T02:48:52.699Z,53.02
2022-08-04T02:49:51.700Z,57.73
2022-08-04T02:50:52.183Z,52.57
2022-08-04T02:51:51.678Z,56.28
2022-08-04T02:52:51.658Z,57.36
2022-08-04T02:53:51.667Z,54.00
2022-08-04T02:54:51.648Z,52.95
2022-08-04T02:55:52.286Z,58.03
2022-08-04T02:56:51.660Z,57.72
2022-08-04T02:57:51.631Z,56.74
2022-08-04T02:58:51.624Z,60.69
2022-08-04T02:59:51.609Z,58.52
2022-08-04T03:00:51.642Z,56.41
2022-08-04T03:01:57.476Z,59.78
2022-08-04T03:02:52.596Z,66.23
2022-08-04T03:03:51.581Z,63.21
2022-08-04T03:04:51.574Z,60.53
2022-08-04T03:06:00.510Z,57.14
2022-08-04T03:06:52.559Z,61.39
2022-08-04T03:07:51.543Z,54.99
2022-08-04T03:08:51.545Z,53.72
2022-08-04T03:09:51.533Z,52.05
2022-08-04T03:10:51.536Z,57.45
2022-08-04T03:11:51.522Z,62.64
2022-08-04T03:12:51.518Z,53.97
2022-08-04T03:13:52.506Z,56.61
2022-08-04T03:14:51.502Z,55.82
2022-08-04T03:15:51.591Z,55.67
2022-08-04T03:16:51.477Z,60.35
2022-08-04T03:17:53.016Z,57.08
2022-08-04T03:18:51.465Z,60.34
2022-08-04T03:19:51.451Z,57.45
2022-08-04T03:20:52.111Z,62.00
2022-08-04T03:21:51.456Z,57.98
2022-08-04T03:23:12.145Z,59.70
2022-08-04T03:23:53.431Z,57.17
2022-08-04T03:24:51.415Z,57.59
2022-08-04T03:25:57.321Z,60.42
2022-08-04T03:26:52.415Z,60.04
2022-08-04T03:27:51.400Z,63.04
2022-08-04T03:28:51.440Z,57.88
2022-08-04T03:29:51.404Z,57.71
2022-08-04T03:30:51.377Z,58.57
2022-08-04T03:31:51.360Z,59.52
2022-08-04T03:32:51.369Z,59.96
2022-08-04T03:33:51.353Z,60.56
2022-08-04T03:34:51.344Z,63.31
2022-08-04T03:35:51.344Z,59.50
2022-08-04T03:36:51.320Z,60.42
2022-08-04T03:37:51.328Z,64.69
2022-08-04T03:38:56.929Z,65.13
2022-08-04T03:39:52.292Z,56.78
2022-08-04T03:40:52.291Z,60.39
2022-08-04T03:42:03.637Z,58.97
2022-08-04T03:42:52.277Z,58.23
2022-08-04T03:43:59.262Z,58.24
2022-08-04T03:44:52.264Z,57.45
2022-08-04T03:45:51.263Z,58.32
2022-08-04T03:46:51.241Z,59.74
2022-08-04T03:47:51.265Z,59.60
2022-08-04T03:48:51.231Z,63.93
2022-08-04T03:49:51.220Z,61.66
2022-08-04T03:50:51.214Z,64.39
2022-08-04T03:51:52.088Z,63.66
2022-08-04T03:52:51.210Z,60.92
2022-08-04T03:53:51.192Z,59.79
2022-08-04T03:54:51.186Z,58.52
2022-08-04T03:55:51.174Z,60.21
2022-08-04T03:56:51.162Z,63.50
2022-08-04T03:57:51.162Z,61.35
2022-08-04T03:58:51.164Z,61.38
2022-08-04T03:59:51.148Z,60.88
2022-08-04T04:00:51.201Z,62.57
2022-08-04T04:02:02.471Z,62.59
2022-08-04T04:02:52.156Z,64.88
2022-08-04T04:03:51.124Z,60.59
2022-08-04T04:04:51.137Z,61.41
2022-08-04T04:05:59.766Z,61.04
2022-08-04T04:06:53.870Z,60.30
2022-08-04T04:07:59.789Z,61.54
2022-08-04T04:08:53.066Z,59.53
2022-08-04T04:09:57.717Z,60.86
2022-08-04T04:10:52.053Z,63.96
2022-08-04T04:11:55.305Z,60.02
2022-08-04T04:12:52.036Z,61.94
2022-08-04T04:13:51.044Z,63.02
2022-08-04T04:14:51.030Z,59.67
2022-08-04T04:15:51.022Z,61.78
2022-08-04T04:16:51.010Z,60.09
2022-08-04T04:17:50.994Z,63.36
2022-08-04T04:18:51.002Z,64.37
2022-08-04T04:19:50.988Z,64.59
2022-08-04T04:20:51.979Z,63.05
2022-08-04T04:21:50.964Z,65.74
2022-08-04T04:22:50.968Z,64.87
2022-08-04T04:23:50.953Z,62.63
2022-08-04T04:24:50.959Z,59.66
2022-08-04T04:25:50.939Z,61.12
2022-08-04T04:26:50.941Z,61.52
2022-08-04T04:27:50.942Z,67.29
2022-08-04T04:28:50.912Z,66.64
2022-08-04T04:29:50.919Z,61.90
2022-08-04T04:30:50.896Z,61.67
2022-08-04T04:31:50.890Z,61.61
2022-08-04T04:32:50.890Z,62.60
2022-08-04T04:33:50.867Z,61.04
2022-08-04T04:34:50.883Z,61.68
2022-08-04T04:35:50.851Z,63.31
2022-08-04T04:36:50.847Z,64.74
2022-08-04T04:37:50.838Z,62.76
2022-08-04T04:38:50.912Z,59.60
2022-08-04T04:39:50.831Z,61.24
2022-08-04T04:40:50.825Z,63.15
2022-08-04T04:41:50.817Z,69.87
2022-08-04T04:42:50.804Z,67.72
2022-08-04T04:43:52.604Z,67.04
2022-08-04T04:44:51.195Z,62.94
2022-08-04T04:45:50.796Z,61.70
2022-08-04T04:46:50.781Z,62.61
2022-08-04T04:48:09.474Z,61.19
2022-08-04T04:48:51.760Z,62.94
2022-08-04T04:49:50.735Z,66.94
2022-08-04T04:50:51.750Z,62.42
2022-08-04T04:51:50.730Z,63.76
2022-08-04T04:52:50.724Z,58.53
2022-08-04T04:53:50.728Z,60.98
2022-08-04T04:54:51.706Z,62.76
2022-08-04T04:55:50.710Z,61.89
2022-08-04T04:56:51.677Z,62.22
2022-08-04T04:57:54.508Z,62.54
2022-08-04T04:58:50.693Z,64.78
2022-08-04T04:59:50.659Z,61.29
2022-08-04T05:00:51.670Z,63.44
2022-08-04T05:01:50.665Z,61.18
2022-08-04T05:02:50.649Z,64.33
2022-08-04T05:03:50.640Z,60.62
2022-08-04T05:04:50.631Z,59.84
2022-08-04T05:05:50.625Z,60.69
2022-08-04T05:06:54.291Z,60.96
2022-08-04T05:07:50.615Z,61.09
2022-08-04T05:08:54.207Z,59.05
2022-08-04T05:09:51.591Z,62.47
2022-08-04T05:10:50.576Z,62.85
2022-08-04T05:11:51.593Z,60.06
2022-08-04T05:14:31.518Z,63.00
2022-08-04T05:14:35.802Z,64.85
2022-08-04T05:14:51.550Z,62.49
2022-08-04T05:15:50.548Z,59.98
2022-08-04T05:16:50.540Z,62.13
2022-08-04T05:17:50.523Z,60.80
2022-08-04T05:18:50.521Z,63.54
2022-08-04T05:19:50.512Z,62.91
2022-08-04T05:20:50.628Z,65.61
2022-08-04T05:21:50.507Z,62.43
2022-08-04T05:22:50.586Z,64.92
2022-08-04T05:23:50.488Z,65.68
2022-08-04T05:24:50.481Z,62.73
2022-08-04T05:25:59.007Z,61.35
2022-08-04T05:26:51.461Z,63.16
2022-08-04T05:27:50.453Z,61.61
2022-08-04T05:28:50.450Z,64.05
2022-08-04T05:29:50.456Z,61.66
2022-08-04T05:30:50.430Z,63.09
2022-08-04T05:31:50.412Z,63.44
2022-08-04T05:32:51.409Z,63.28
2022-08-04T05:33:50.407Z,62.29
2022-08-04T05:34:50.394Z,64.75
2022-08-04T05:36:17.134Z,65.80
2022-08-04T05:36:51.385Z,63.63
2022-08-04T05:38:01.620Z,64.21
2022-08-04T05:38:51.448Z,65.43
2022-08-04T05:39:50.353Z,64.45
2022-08-04T05:40:50.361Z,63.39
2022-08-04T05:41:55.681Z,61.97
2022-08-04T05:42:51.330Z,62.06
2022-08-04T05:43:50.324Z,62.75
2022-08-04T05:44:51.303Z,62.73
2022-08-04T05:45:51.325Z,62.64
2022-08-04T05:46:53.516Z,65.10
2022-08-04T05:47:50.296Z,70.57
2022-08-04T05:48:50.289Z,65.83
2022-08-04T05:50:01.426Z,62.96
2022-08-04T05:50:51.277Z,61.86
2022-08-04T05:51:50.263Z,64.65
2022-08-04T05:52:50.260Z,63.51
2022-08-04T05:53:50.245Z,61.98
2022-08-04T05:54:50.245Z,63.38
2022-08-04T05:55:58.785Z,65.31
2022-08-04T05:56:51.231Z,61.79
2022-08-04T05:57:55.367Z,62.21
2022-08-04T05:58:52.215Z,62.38
2022-08-04T05:59:50.195Z,61.54
2022-08-04T06:00:52.217Z,63.18
2022-08-04T06:01:56.315Z,61.54
2022-08-04T06:02:51.181Z,64.20
2022-08-04T06:03:50.169Z,64.61
2022-08-04T06:04:50.185Z,63.55
2022-08-04T06:05:50.160Z,61.43
2022-08-04T06:06:50.149Z,60.42
2022-08-04T06:08:12.725Z,63.09
2022-08-04T06:08:51.135Z,60.51
2022-08-04T06:09:50.140Z,61.44
2022-08-04T06:10:50.118Z,63.21
2022-08-04T06:12:03.300Z,58.27
2022-08-04T06:12:51.099Z,58.78
2022-08-04T06:13:51.156Z,59.94
2022-08-04T06:14:51.094Z,61.58
2022-08-04T06:15:50.081Z,61.96
2022-08-04T06:16:51.503Z,61.88
2022-08-04T06:19:56.790Z,63.89
2022-08-04T06:20:00.737Z,69.35
2022-08-04T06:20:04.006Z,65.06
2022-08-04T06:20:51.038Z,69.04
2022-08-04T06:21:50.044Z,67.50
2022-08-04T06:22:50.047Z,63.17
2022-08-04T06:23:53.257Z,62.47
2022-08-04T06:24:51.013Z,64.00
2022-08-04T06:25:49.999Z,63.02
2022-08-04T06:26:49.999Z,59.30
2022-08-04T06:27:49.993Z,64.95
2022-08-04T06:28:49.991Z,71.21
2022-08-04T06:29:51.725Z,69.73
2022-08-04T06:30:49.969Z,65.50
2022-08-04T06:32:27.156Z,60.37
2022-08-04T06:32:50.953Z,63.08
2022-08-04T06:33:54.092Z,62.22
2022-08-04T06:34:49.938Z,64.68
2022-08-04T06:35:49.931Z,63.64
2022-08-04T06:36:49.941Z,61.89
2022-08-04T06:37:49.914Z,62.10
2022-08-04T06:38:58.255Z,62.16
2022-08-04T06:39:50.911Z,62.69
2022-08-04T06:40:49.887Z,61.09
2022-08-04T06:42:02.555Z,60.26
2022-08-04T06:42:50.873Z,63.03
2022-08-04T06:43:49.865Z,61.22
2022-08-04T06:44:49.870Z,60.97
2022-08-04T06:45:49.853Z,61.21
2022-08-04T06:46:49.846Z,61.73
2022-08-04T06:47:49.843Z,60.32
2022-08-04T06:48:49.841Z,61.57
2022-08-04T06:51:32.428Z,59.59
2022-08-04T06:51:32.678Z,60.46
2022-08-04T06:51:50.949Z,63.58
2022-08-04T06:52:49.856Z,63.11
2022-08-04T06:53:49.799Z,62.43
2022-08-04T06:54:50.617Z,63.45
2022-08-04T06:55:49.775Z,63.05
2022-08-04T06:56:49.767Z,62.72
2022-08-04T06:57:49.758Z,63.54
2022-08-04T06:58:49.771Z,63.32
2022-08-04T06:59:49.754Z,62.35
2022-08-04T07:00:49.737Z,63.86
2022-08-04T07:01:49.774Z,60.55
2022-08-04T07:02:49.722Z,63.13
2022-08-04T07:03:50.823Z,60.55
2022-08-04T07:04:50.658Z,61.30
2022-08-04T07:05:49.691Z,63.77
2022-08-04T07:06:49.689Z,62.26
2022-08-04T07:07:57.627Z,59.41
2022-08-04T07:08:51.660Z,59.71
2022-08-04T07:09:49.671Z,62.44
2022-08-04T07:10:49.658Z,61.59
2022-08-04T07:11:49.664Z,62.30
2022-08-04T07:12:49.654Z,59.51
2022-08-04T07:13:49.636Z,60.68
2022-08-04T07:14:49.649Z,59.86
2022-08-04T07:15:49.625Z,58.09
2022-08-04T07:16:49.629Z,60.73
2022-08-04T07:17:52.388Z,58.94
2022-08-04T07:18:49.597Z,59.68
2022-08-04T07:19:49.595Z,61.74
2022-08-04T07:20:49.593Z,62.90
2022-08-04T07:22:25.021Z,62.12
2022-08-04T07:22:50.574Z,62.35
2022-08-04T07:23:49.564Z,64.93
2022-08-04T07:24:49.586Z,62.77
2022-08-04T07:25:58.959Z,60.88
2022-08-04T07:26:50.542Z,60.53
2022-08-04T07:27:49.608Z,62.79
2022-08-04T07:28:49.543Z,60.65
2022-08-04T07:29:49.531Z,63.59
2022-08-04T07:30:50.527Z,63.50
2022-08-04T07:31:49.519Z,62.03
2022-08-04T07:32:49.501Z,63.39
2022-08-04T07:34:16.447Z,59.55
2022-08-04T07:34:50.488Z,61.12
2022-08-04T07:36:05.046Z,62.76
2022-08-04T07:36:52.878Z,62.62
2022-08-04T07:37:49.472Z,62.37
2022-08-04T07:38:51.658Z,61.82
2022-08-04T07:39:49.467Z,60.98
2022-08-04T07:40:49.449Z,61.38
2022-08-04T07:41:49.486Z,61.29
2022-08-04T07:42:49.425Z,60.12
2022-08-04T07:43:49.419Z,60.03
2022-08-04T07:44:50.255Z,60.39
2022-08-04T07:45:49.393Z,61.46
2022-08-04T07:46:51.257Z,61.30
2022-08-04T07:48:04.997Z,60.87
2022-08-04T07:48:50.390Z,61.03
2022-08-04T07:49:55.135Z,61.23
2022-08-04T07:50:50.373Z,60.54
2022-08-04T07:51:49.365Z,63.11
2022-08-04T07:53:03.605Z,61.83
2022-08-04T07:53:55.529Z,61.33
2022-08-04T07:54:49.347Z,64.29
2022-08-04T07:55:50.296Z,62.27
2022-08-04T07:56:50.181Z,59.89
2022-08-04T07:57:49.318Z,61.04
2022-08-04T07:58:49.923Z,60.64
2022-08-04T07:59:50.330Z,59.08
2022-08-04T08:00:50.296Z,65.38
2022-08-04T08:01:49.283Z,62.17
2022-08-04T08:02:49.277Z,62.18
2022-08-04T08:03:49.355Z,63.97
2022-08-04T08:04:49.282Z,61.20
2022-08-04T08:06:16.953Z,61.32
2022-08-04T08:06:50.249Z,61.01
2022-08-04T08:07:50.846Z,61.01
2022-08-04T08:08:50.236Z,60.18
2022-08-04T08:09:49.239Z,61.06
2022-08-04T08:10:49.225Z,66.28
2022-08-04T08:12:38.655Z,62.71
2022-08-04T08:12:52.135Z,61.45
2022-08-04T08:13:49.201Z,59.95
2022-08-04T08:14:49.200Z,60.41
2022-08-04T08:15:49.199Z,60.42
2022-08-04T08:16:49.175Z,62.31
2022-08-04T08:17:58.587Z,62.14
2022-08-04T08:18:50.308Z,63.92
2022-08-04T08:19:50.157Z,63.76
2022-08-04T08:20:49.146Z,61.73
2022-08-04T08:21:59.077Z,61.48
2022-08-04T08:22:51.139Z,63.69
2022-08-04T08:23:49.125Z,63.67
2022-08-04T08:24:49.115Z,62.95
2022-08-04T08:25:49.794Z,62.37
2022-08-04T08:26:49.104Z,61.41
2022-08-04T08:27:55.938Z,61.39
2022-08-04T08:28:50.086Z,62.11
2022-08-04T08:29:49.079Z,60.29
2022-08-04T08:30:52.851Z,64.00
2022-08-04T08:31:58.463Z,62.25
2022-08-04T08:32:50.050Z,61.73
2022-08-04T08:33:50.661Z,61.19
2022-08-04T08:34:49.056Z,62.14
2022-08-04T08:35:53.026Z,62.99
2022-08-04T08:36:50.029Z,62.16
2022-08-04T08:37:49.536Z,60.27
2022-08-04T08:38:49.022Z,60.14
2022-08-04T08:39:49.070Z,61.08
2022-08-04T08:40:49.002Z,61.85
2022-08-04T08:41:51.957Z,59.60
2022-08-04T08:42:48.987Z,60.24
2022-08-04T08:44:06.149Z,59.49
2022-08-04T08:44:54.820Z,60.13
2022-08-04T08:45:49.959Z,60.77
2022-08-04T08:46:50.265Z,62.64
2022-08-04T08:48:05.131Z,59.60
2022-08-04T08:48:49.940Z,62.95
2022-08-04T08:50:02.407Z,60.53
2022-08-04T08:50:49.921Z,62.06
2022-08-04T08:51:48.929Z,59.18
2022-08-04T08:52:57.595Z,62.90
2022-08-04T08:53:49.898Z,60.23
2022-08-04T08:54:48.912Z,62.91
2022-08-04T08:55:48.890Z,61.05
2022-08-04T08:56:48.886Z,62.10
2022-08-04T08:58:00.048Z,63.90
2022-08-04T08:58:49.870Z,62.27
2022-08-04T08:59:48.873Z,62.42
2022-08-04T09:00:48.884Z,64.08
2022-08-04T09:01:48.925Z,62.41
2022-08-04T09:02:48.842Z,61.28
2022-08-04T09:03:49.837Z,61.55
2022-08-04T09:04:48.831Z,61.30
2022-08-04T09:05:48.837Z,61.74
2022-08-04T09:06:48.809Z,59.48
2022-08-04T09:07:48.802Z,60.43
2022-08-04T09:08:48.796Z,57.69
2022-08-04T09:09:48.792Z,60.08
2022-08-04T09:10:48.783Z,60.73
2022-08-04T09:11:48.781Z,59.54
2022-08-04T09:12:48.766Z,60.16
2022-08-04T09:13:48.760Z,59.48
2022-08-04T09:14:48.756Z,59.20
2022-08-04T09:15:52.468Z,60.61
2022-08-04T09:16:50.742Z,60.91
2022-08-04T09:17:48.726Z,59.92
2022-08-04T09:18:48.723Z,62.08
2022-08-04T09:19:48.713Z,61.82
2022-08-04T09:20:48.721Z,62.38
2022-08-04T09:21:48.705Z,62.48
2022-08-04T09:23:03.308Z,61.94
2022-08-04T09:23:48.688Z,64.25
2022-08-04T09:24:48.682Z,63.93
2022-08-04T09:25:48.686Z,61.99
2022-08-04T09:26:48.675Z,62.07
2022-08-04T09:27:48.661Z,66.26
2022-08-04T09:28:53.964Z,62.08
2022-08-04T09:29:50.682Z,61.99
2022-08-04T09:30:48.696Z,64.43
2022-08-04T09:31:54.972Z,61.35
2022-08-04T09:32:49.630Z,61.54
2022-08-04T09:33:48.621Z,61.54
2022-08-04T09:35:03.522Z,60.32
2022-08-04T09:35:49.603Z,61.63
2022-08-04T09:36:48.719Z,62.12
2022-08-04T09:37:48.598Z,61.56
2022-08-04T09:38:52.361Z,60.05
2022-08-04T09:39:51.830Z,64.01
2022-08-04T09:40:55.316Z,62.27
2022-08-04T09:41:52.643Z,60.41
2022-08-04T09:42:48.556Z,58.89
2022-08-04T09:43:59.423Z,60.26
2022-08-04T09:44:56.219Z,61.06
2022-08-04T09:45:49.766Z,59.10
2022-08-04T09:46:48.521Z,60.30
2022-08-04T09:47:48.523Z,59.03
2022-08-04T09:48:48.499Z,60.29
2022-08-04T09:49:49.505Z,61.42
2022-08-04T09:50:50.589Z,61.49
2022-08-04T09:51:57.239Z,61.90
2022-08-04T09:52:49.479Z,61.60
2022-08-04T09:53:48.494Z,60.09
2022-08-04T09:54:48.470Z,61.83
2022-08-04T09:55:53.778Z,60.84
2022-08-04T09:56:50.241Z,63.26
2022-08-04T09:57:48.441Z,63.38
2022-08-04T09:58:48.444Z,61.72
2022-08-04T09:59:49.437Z,62.33
2022-08-04T10:00:48.421Z,62.48
2022-08-04T10:01:48.425Z,61.18
2022-08-04T10:02:49.479Z,65.92
2022-08-04T10:03:48.405Z,60.89
2022-08-04T10:04:48.394Z,59.78
2022-08-04T10:05:48.398Z,61.22
2022-08-04T10:06:48.394Z,64.36
2022-08-04T10:08:15.205Z,63.56
2022-08-04T10:08:51.207Z,59.30
2022-08-04T10:09:48.359Z,61.95
2022-08-04T10:10:48.381Z,60.95
2022-08-04T10:11:56.108Z,60.19
2022-08-04T10:12:49.339Z,60.27
2022-08-04T10:13:48.351Z,58.70
2022-08-04T10:14:48.333Z,59.45
2022-08-04T10:15:48.326Z,60.17
2022-08-04T10:16:48.315Z,61.23
2022-08-04T10:17:51.933Z,60.73
2022-08-04T10:18:48.309Z,61.01
2022-08-04T10:19:48.298Z,61.48
2022-08-04T10:20:52.913Z,61.69
2022-08-04T10:21:50.596Z,63.95
2022-08-04T10:23:10.442Z,61.90
2022-08-04T10:23:56.482Z,60.06
2022-08-04T10:24:49.262Z,61.49
2022-08-04T10:26:07.289Z,62.90
2022-08-04T10:26:50.592Z,58.13
2022-08-04T10:27:48.239Z,62.90
2022-08-04T10:28:48.231Z,61.27
2022-08-04T10:29:48.223Z,63.32
2022-08-04T10:30:48.214Z,62.96
2022-08-04T10:31:48.214Z,62.11
2022-08-04T10:32:48.203Z,64.90
2022-08-04T10:33:48.202Z,59.95
2022-08-04T10:34:48.196Z,58.45
2022-08-04T10:35:48.180Z,61.39
2022-08-04T10:36:48.183Z,66.12
2022-08-04T10:38:00.320Z,60.54
2022-08-04T10:38:49.162Z,60.24
2022-08-04T10:39:48.215Z,60.33
2022-08-04T10:40:48.147Z,64.67
2022-08-04T10:41:48.156Z,62.46
2022-08-04T10:42:48.141Z,66.99
2022-08-04T10:43:48.124Z,59.56
2022-08-04T10:44:48.122Z,60.58
2022-08-04T10:45:48.120Z,61.77
2022-08-04T10:46:49.105Z,57.47
2022-08-04T10:47:53.225Z,62.49
2022-08-04T10:48:49.096Z,60.84
2022-08-04T10:49:48.087Z,60.39
2022-08-04T10:50:48.087Z,60.57
2022-08-04T10:51:58.404Z,61.68
2022-08-04T10:52:49.837Z,64.80
2022-08-04T10:53:49.057Z,61.33
2022-08-04T10:54:48.093Z,61.38
2022-08-04T10:56:05.727Z,62.60
2022-08-04T10:56:49.048Z,63.60
2022-08-04T10:57:48.028Z,63.69
2022-08-04T10:58:49.003Z,62.99
2022-08-04T10:59:49.020Z,64.22
2022-08-04T11:00:48.007Z,62.88
2022-08-04T11:01:50.970Z,63.26
2022-08-04T11:02:49.044Z,60.87
2022-08-04T11:03:47.987Z,60.65
2022-08-04T11:04:47.978Z,61.81
2022-08-04T11:05:47.974Z,61.38
2022-08-04T11:06:47.992Z,61.72
2022-08-04T11:07:47.967Z,62.67
2022-08-04T11:08:47.955Z,62.38
2022-08-04T11:09:47.945Z,61.98
2022-08-04T11:10:47.938Z,61.18
2022-08-04T11:11:56.876Z,59.60
2022-08-04T11:12:48.929Z,62.88
2022-08-04T11:13:48.821Z,62.66
2022-08-04T11:14:47.911Z,64.84
2022-08-04T11:15:47.915Z,56.60
2022-08-04T11:16:47.918Z,59.35
2022-08-04T11:17:47.887Z,58.90
2022-08-04T11:18:47.889Z,62.12
2022-08-04T11:19:53.308Z,64.87
2022-08-04T11:20:49.873Z,63.43
2022-08-04T11:21:47.868Z,62.53
2022-08-04T11:22:47.883Z,61.71
2022-08-04T11:23:47.847Z,61.55
2022-08-04T11:24:47.842Z,61.07
2022-08-04T11:25:51.592Z,60.68
2022-08-04T11:26:48.826Z,63.19
2022-08-04T11:27:47.819Z,62.28
2022-08-04T11:28:55.798Z,62.04
2022-08-04T11:29:49.812Z,62.84
2022-08-04T11:30:47.800Z,62.30
2022-08-04T11:31:51.652Z,59.30
2022-08-04T11:32:48.783Z,61.19
2022-08-04T11:33:47.786Z,58.91
2022-08-04T11:34:52.943Z,60.49
2022-08-04T11:35:48.759Z,60.48
2022-08-04T11:36:47.766Z,61.30
2022-08-04T11:37:47.755Z,61.41
2022-08-04T11:38:52.099Z,62.11
2022-08-04T11:39:47.736Z,59.96
2022-08-04T11:40:55.729Z,60.55
2022-08-04T11:41:48.723Z,61.41
2022-08-04T11:42:47.716Z,60.37
2022-08-04T11:44:01.627Z,62.27
2022-08-04T11:44:48.699Z,58.97
2022-08-04T11:45:47.689Z,59.77
2022-08-04T11:46:47.681Z,60.19
2022-08-04T11:47:47.685Z,60.07
2022-08-04T11:48:47.668Z,60.02
2022-08-04T11:49:56.979Z,61.02
2022-08-04T11:50:53.425Z,60.34
2022-08-04T11:51:49.669Z,61.02
2022-08-04T11:52:47.652Z,62.67
2022-08-04T11:53:47.630Z,62.23
2022-08-04T11:54:52.500Z,60.33
2022-08-04T11:56:07.401Z,62.23
2022-08-04T11:56:48.622Z,64.06
2022-08-04T11:57:47.616Z,64.62
2022-08-04T11:58:50.269Z,66.37
2022-08-04T11:59:47.587Z,62.50
2022-08-04T12:00:48.265Z,62.74
2022-08-04T12:01:47.622Z,59.57
2022-08-04T12:02:47.655Z,60.65
2022-08-04T12:04:03.834Z,60.90
2022-08-04T12:04:49.556Z,62.14
2022-08-04T12:05:47.569Z,62.52
2022-08-04T12:06:56.740Z,60.84
2022-08-04T12:07:48.977Z,58.76
2022-08-04T12:08:47.524Z,60.02
2022-08-04T12:09:47.514Z,59.33
2022-08-04T12:10:47.507Z,58.21
2022-08-04T12:11:47.909Z,58.49
2022-08-04T12:12:47.525Z,60.40
2022-08-04T12:13:47.530Z,59.13
2022-08-04T12:14:47.488Z,57.27
2022-08-04T12:15:47.488Z,60.85
2022-08-04T12:16:47.465Z,61.24
2022-08-04T12:17:52.740Z,59.31
2022-08-04T12:18:48.462Z,63.76
2022-08-04T12:20:03.247Z,62.69
2022-08-04T12:20:48.434Z,63.75
2022-08-04T12:21:53.343Z,63.91
2022-08-04T12:22:48.418Z,62.06
2022-08-04T12:23:47.410Z,59.38
2022-08-04T12:24:47.422Z,60.00
2022-08-04T12:25:47.401Z,62.60
2022-08-04T12:26:47.406Z,63.78
2022-08-04T12:27:47.387Z,62.66
2022-08-04T12:29:09.085Z,62.57
2022-08-04T12:30:53.950Z,62.18
2022-08-04T12:30:58.173Z,59.82
2022-08-04T12:31:48.357Z,59.58
2022-08-04T12:32:48.213Z,61.94
2022-08-04T12:34:05.217Z,60.84
2022-08-04T12:34:48.339Z,61.64
2022-08-04T12:36:10.658Z,61.18
2022-08-04T12:36:48.324Z,61.99
2022-08-04T12:37:47.330Z,58.08
2022-08-04T12:38:47.328Z,61.08
2022-08-04T12:40:29.299Z,62.77
2022-08-04T12:40:48.899Z,61.71
2022-08-04T12:41:47.290Z,63.18
2022-08-04T12:42:55.871Z,60.21
2022-08-04T12:43:48.280Z,61.01
2022-08-04T12:44:47.263Z,60.07
2022-08-04T12:45:48.643Z,62.26
2022-08-04T12:46:47.285Z,59.27
2022-08-04T12:47:47.245Z,59.27
2022-08-04T12:48:47.239Z,59.59
2022-08-04T12:49:53.157Z,62.70
2022-08-04T12:50:48.221Z,58.40
2022-08-04T12:52:08.557Z,61.91
2022-08-04T12:53:04.280Z,60.33
2022-08-04T12:53:51.430Z,61.99
2022-08-04T12:54:47.195Z,61.65